Aviation Digital Data Service (ADDS)

Output produced by METARs form (0520 UTC 29 August 2016)
found at http://aviationweather.gov/adds/metars/
 
KCON 282320Z 2900/2924 16011KT P6SM SCT200 
     FM290400 18005KT 5SM HZ OVC100 
     FM291300 30013G20KT P6SM BKN250